Time;durP1;ratioP1;P1;durP2;ratioP2;P2;SDS_P1;SDS_P2;PMS_P1;PMS_P2;Temp;Humidity;BMP_temperature;BMP_pressure;BME280_temperature;BME280_humidity;BME280_pressure;Samples;Min_cycle;Max_cycle;Signal;HPM_P1;HPM_P2
2023/07/17 00:00:34;;;;;;;4.43;3.27;;;;;;;;;;5077725;28;20459;-61
2023/07/17 00:03:00;;;;;;;5.27;3.33;;;22.70;98.10;;;;;;5077567;28;20974;-60
2023/07/17 00:05:28;;;;;;;4.67;3.40;;;;;;;;;;5078470;28;20453;-60
2023/07/17 00:07:55;;;;;;;2.90;2.50;;;;;;;;;;5079305;28;20514;-60
2023/07/17 00:10:22;;;;;;;4.50;4.10;;;22.80;85.60;;;;;;5074947;28;20502;-56
2023/07/17 00:12:49;;;;;;;5.63;3.23;;;22.80;87.10;;;;;;5076098;28;20865;-59
2023/07/17 00:15:17;;;;;;;3.73;2.80;;;22.60;99.90;;;;;;5076140;28;20505;-60
2023/07/17 00:17:44;;;;;;;4.83;3.63;;;22.70;87.30;;;;;;5075791;28;20497;-59
2023/07/17 00:20:12;;;;;;;5.60;3.27;;;22.70;98.80;;;;;;5077067;28;20549;-61
2023/07/17 00:22:39;;;;;;;6.67;3.90;;;23.80;89.20;;;;;;5077395;28;20784;-59
2023/07/17 00:25:07;;;;;;;8.07;5.33;;;22.60;88.40;;;;;;5079592;28;20472;-60
2023/07/17 00:27:35;;;;;;;14.77;7.77;;;22.50;88.30;;;;;;5075795;28;20525;-60
2023/07/17 00:30:02;;;;;;;5.00;3.60;;;22.80;99.90;;;;;;5075160;28;20539;-61
2023/07/17 00:32:30;;;;;;;7.40;4.27;;;22.50;88.90;;;;;;5074748;28;20934;-61
2023/07/17 00:34:57;;;;;;;5.20;3.50;;;22.50;89.60;;;;;;5075711;28;20603;-59
2023/07/17 00:37:24;;;;;;;3.97;3.17;;;22.50;99.90;;;;;;5076909;28;20500;-60
2023/07/17 00:39:51;;;;;;;4.17;3.70;;;;;;;;;;5077690;28;20856;-60
2023/07/17 00:42:18;;;;;;;5.80;3.93;;;22.50;90.00;;;;;;5084152;28;20418;-59
2023/07/17 00:44:45;;;;;;;5.50;3.50;;;22.40;99.90;;;;;;5090145;28;20474;-60
2023/07/17 00:47:13;;;;;;;4.93;3.40;;;;;;;;;;5084950;28;20854;-62
2023/07/17 00:49:41;;;;;;;6.53;3.70;;;22.30;99.90;;;;;;5085310;28;20511;-57
2023/07/17 00:52:11;;;;;;;6.57;3.37;;;22.30;99.90;;;;;;5084604;28;20477;-61
2023/07/17 00:54:41;;;;;;;7.23;4.70;;;22.20;99.90;;;;;;5085080;28;20438;-61
2023/07/17 00:57:10;;;;;;;12.70;4.17;;;22.20;92.00;;;;;;5083828;28;20446;-58
2023/07/17 00:59:37;;;;;;;4.40;3.93;;;22.20;92.30;;;;;;5084476;28;20466;-61
2023/07/17 01:02:04;;;;;;;6.67;3.47;;;22.10;99.90;;;;;;5084115;28;20529;-60
2023/07/17 01:04:31;;;;;;;7.13;3.57;;;;;;;;;;5084656;28;20477;-59
2023/07/17 01:06:59;;;;;;;6.30;3.70;;;22.10;92.20;;;;;;5074925;28;20502;-61
2023/07/17 01:09:27;;;;;;;8.50;3.77;;;;;;;;;;5074943;28;20457;-61
2023/07/17 01:11:54;;;;;;;6.43;3.90;;;22.10;92.50;;;;;;5075075;28;20517;-60
2023/07/17 01:14:21;;;;;;;6.53;4.80;;;21.90;99.90;;;;;;5076624;28;20478;-58
2023/07/17 01:16:49;;;;;;;6.97;3.23;;;22.10;93.50;;;;;;5076100;28;20969;-59
2023/07/17 01:19:16;;;;;;;5.57;4.00;;;;;;;;;;5076381;28;20485;-61
2023/07/17 01:21:49;;;;;;;4.60;3.63;;;22.00;93.20;;;;;;5077308;28;20497;-60
2023/07/17 01:24:18;;;;;;;6.10;3.37;;;21.90;93.40;;;;;;5078663;28;20465;-59
2023/07/17 01:26:45;;;;;;;7.10;4.00;;;21.90;93.80;;;;;;5090495;28;20486;-61
2023/07/17 01:29:11;;;;;;;4.23;3.83;;;21.90;99.90;;;;;;5087399;28;20484;-60
2023/07/17 01:31:39;;;;;;;5.47;4.20;;;21.80;93.90;;;;;;5088976;28;20538;-62
2023/07/17 01:34:06;;;;;;;6.00;3.63;;;21.80;94.30;;;;;;5089619;28;20462;-61
2023/07/17 01:36:33;;;;;;;9.77;4.27;;;21.80;99.90;;;;;;5089528;28;20513;-61
2023/07/17 01:39:00;;;;;;;5.00;3.77;;;21.80;94.50;;;;;;5089330;28;20437;-59
2023/07/17 01:41:28;;;;;;;11.90;4.27;;;21.90;95.00;;;;;;5086292;28;20446;-60
2023/07/17 01:43:55;;;;;;;4.00;3.30;;;21.80;99.90;;;;;;5083006;28;20519;-61
2023/07/17 01:46:24;;;;;;;5.03;3.63;;;21.80;95.00;;;;;;5082399;28;20457;-59
2023/07/17 01:48:51;;;;;;;4.57;3.60;;;21.70;99.90;;;;;;5082665;28;20524;-61
2023/07/17 01:51:18;;;;;;;4.83;4.17;;;21.60;99.90;;;;;;5078160;28;20789;-61
2023/07/17 01:53:45;;;;;;;6.50;3.20;;;21.70;95.30;;;;;;5077997;28;20557;-58
2023/07/17 01:56:12;;;;;;;4.07;3.67;;;;;;;;;;5082012;28;20454;-63
2023/07/17 01:58:40;;;;;;;5.90;3.60;;;21.70;94.50;;;;;;5088256;28;20564;-60
2023/07/17 02:01:07;;;;;;;3.87;3.47;;;21.60;99.90;;;;;;5088506;28;20466;-59
2023/07/17 02:03:36;;;;;;;5.27;3.37;;;;;;;;;;5085440;28;20466;-60
2023/07/17 02:06:03;;;;;;;5.40;3.63;;;21.50;95.20;;;;;;5085897;28;20450;-59
2023/07/17 02:08:29;;;;;;;5.40;3.60;;;21.00;99.90;;;;;;5088923;28;20494;-60
2023/07/17 02:10:56;;;;;;;45.70;20.63;;;21.50;99.90;;;;;;5089145;28;20493;-59
2023/07/17 02:13:23;;;;;;;5.70;4.33;;;;;;;;;;5088893;28;20509;-60
2023/07/17 02:15:52;;;;;;;26.17;11.80;;;21.30;95.10;;;;;;5088824;28;20484;-60
2023/07/17 02:18:19;;;;;;;25.13;14.77;;;21.20;95.80;;;;;;5087540;28;20485;-59
2023/07/17 02:20:48;;;;;;;6.80;4.07;;;21.20;96.00;;;;;;5083953;28;20448;-59
2023/07/17 02:23:16;;;;;;;6.67;5.10;;;;;;;;;;5089980;28;20498;-60
2023/07/17 02:25:43;;;;;;;5.77;4.80;;;;;;;;;;5090686;28;20449;-60
2023/07/17 02:28:11;;;;;;;5.97;5.27;;;21.00;96.90;;;;;;5090368;28;20446;-61
2023/07/17 02:30:38;;;;;;;5.97;3.87;;;;;;;;;;5087428;28;20455;-61
2023/07/17 02:33:06;;;;;;;5.17;3.80;;;20.80;99.90;;;;;;5091006;28;21024;-60
2023/07/17 02:35:33;;;;;;;6.00;3.87;;;20.70;99.90;;;;;;5084599;28;20448;-61
2023/07/17 02:38:00;;;;;;;5.67;3.60;;;;;;;;;;5083433;28;20509;-59
2023/07/17 02:40:27;;;;;;;5.30;3.90;;;20.30;99.90;;;;;;5077266;28;20514;-58
2023/07/17 02:42:54;;;;;;;5.40;3.83;;;20.50;99.90;;;;;;5083036;28;20539;-60
2023/07/17 02:45:21;;;;;;;7.03;4.17;;;20.60;99.90;;;;;;5086356;28;20478;-58
2023/07/17 02:47:47;;;;;;;4.97;4.30;;;20.30;99.90;;;;;;5082691;28;20514;-60
2023/07/17 02:50:16;;;;;;;5.37;3.83;;;20.40;99.90;;;;;;5082383;28;20474;-58
2023/07/17 02:52:42;;;;;;;5.07;2.80;;;20.20;99.90;;;;;;5082912;28;20446;-60
2023/07/17 02:55:10;;;;;;;5.90;2.73;;;20.30;99.90;;;;;;5078929;28;20470;-60
2023/07/17 02:57:37;;;;;;;5.43;3.40;;;20.30;99.90;;;;;;5076638;28;20454;-60
2023/07/17 03:00:08;;;;;;;3.80;2.90;;;20.10;99.90;;;;;;5077316;28;21033;-60
2023/07/17 03:02:35;;;;;;;9.70;3.30;;;20.30;99.90;;;;;;5076758;28;20528;-61
2023/07/17 03:05:08;;;;;;;6.90;3.57;;;20.00;99.90;;;;;;5076679;28;20475;-61
2023/07/17 03:07:37;;;;;;;8.80;3.67;;;20.10;99.90;;;;;;5077824;28;20438;-60
2023/07/17 03:10:04;;;;;;;7.50;3.33;;;20.10;99.90;;;;;;5080729;28;20471;-60
2023/07/17 03:12:31;;;;;;;4.50;4.10;;;20.00;99.90;;;;;;5082098;28;20450;-59
2023/07/17 03:14:58;;;;;;;5.63;3.73;;;20.10;99.90;;;;;;5083140;28;20517;-59
2023/07/17 03:17:25;;;;;;;4.30;3.23;;;20.10;99.90;;;;;;5082284;28;20450;-60
2023/07/17 03:19:52;;;;;;;4.00;2.83;;;;;;;;;;5082414;28;20989;-60
2023/07/17 03:22:19;;;;;;;9.23;3.30;;;20.10;99.90;;;;;;5082544;28;20450;-61
2023/07/17 03:24:50;;;;;;;4.63;3.20;;;20.00;99.90;;;;;;5084309;28;20477;-59
2023/07/17 03:27:17;;;;;;;4.07;3.23;;;20.00;99.90;;;;;;5093119;28;20455;-57
2023/07/17 03:29:44;;;;;;;5.30;3.53;;;20.10;99.90;;;;;;5086559;28;20460;-61
2023/07/17 03:32:11;;;;;;;5.10;4.00;;;20.10;99.90;;;;;;5082177;28;20477;-60
2023/07/17 03:34:37;;;;;;;4.40;3.20;;;20.20;99.90;;;;;;5085312;28;20569;-60
2023/07/17 03:37:05;;;;;;;5.27;3.20;;;20.20;99.90;;;;;;5082622;28;20478;-60
2023/07/17 03:39:32;;;;;;;5.53;4.00;;;20.00;99.90;;;;;;5081930;28;20522;-60
2023/07/17 03:42:01;;;;;;;6.87;3.70;;;20.10;99.90;;;;;;5082185;28;20485;-61
2023/07/17 03:44:28;;;;;;;7.30;3.90;;;;;;;;;;5082218;28;20529;-60
2023/07/17 03:46:55;;;;;;;4.90;3.50;;;;;;;;;;5082318;28;20561;-60
2023/07/17 03:49:22;;;;;;;8.00;4.93;;;20.50;99.90;;;;;;5091237;28;20437;-60
2023/07/17 03:51:48;;;;;;;5.83;3.83;;;20.10;99.90;;;;;;5075928;28;20467;-61
2023/07/17 03:54:16;;;;;;;7.30;3.03;;;;;;;;;;5075245;28;20488;-61
2023/07/17 03:56:42;;;;;;;5.17;3.60;;;19.90;99.90;;;;;;5079033;28;20498;-61
2023/07/17 03:59:11;;;;;;;6.83;4.17;;;20.10;99.90;;;;;;5088385;28;20442;-60
2023/07/17 04:01:41;;;;;;;8.43;3.97;;;20.10;99.90;;;;;;5088369;28;20550;-60
2023/07/17 04:04:07;;;;;;;6.90;3.80;;;20.30;99.90;;;;;;5081724;28;20472;-60
2023/07/17 04:06:34;;;;;;;6.43;4.50;;;20.00;99.90;;;;;;5081103;28;20526;-62
2023/07/17 04:09:01;;;;;;;6.00;4.80;;;20.10;99.90;;;;;;5080996;28;20451;-62
2023/07/17 04:11:28;;;;;;;10.77;4.10;;;20.00;99.90;;;;;;5080919;28;20941;-59
2023/07/17 04:13:55;;;;;;;9.63;3.97;;;20.00;99.90;;;;;;5081605;28;20568;-61
2023/07/17 04:16:26;;;;;;;7.20;4.03;;;20.00;99.90;;;;;;5082895;28;20515;-59
2023/07/17 04:18:53;;;;;;;6.50;4.23;;;;;;;;;;5075416;28;20469;-59
2023/07/17 04:21:20;;;;;;;5.17;4.23;;;20.20;99.90;;;;;;5077871;28;20449;-61
2023/07/17 04:23:50;;;;;;;4.30;3.60;;;20.00;99.90;;;;;;5078530;28;20820;-60
2023/07/17 04:26:17;;;;;;;9.83;4.17;;;20.00;99.90;;;;;;5078755;28;20447;-60
2023/07/17 04:28:44;;;;;;;6.50;3.70;;;20.20;99.90;;;;;;5080850;28;20470;-60
2023/07/17 04:31:11;;;;;;;6.80;4.10;;;20.00;99.90;;;;;;5081612;28;20457;-60
2023/07/17 04:33:40;;;;;;;4.53;3.27;;;20.00;99.90;;;;;;5081575;28;20486;-62
2023/07/17 04:36:08;;;;;;;7.00;4.00;;;20.00;99.90;;;;;;5081198;28;20510;-60
2023/07/17 04:38:35;;;;;;;6.83;3.63;;;20.00;99.90;;;;;;5081307;28;20537;-60
2023/07/17 04:41:05;;;;;;;5.50;3.57;;;20.00;99.90;;;;;;5081278;28;20503;-60
2023/07/17 04:43:32;;;;;;;4.10;3.20;;;19.80;99.90;;;;;;5080991;28;20482;-59
2023/07/17 04:45:59;;;;;;;5.70;3.80;;;19.80;99.90;;;;;;5082112;28;20456;-61
2023/07/17 04:48:26;;;;;;;4.83;3.63;;;19.90;99.90;;;;;;5075092;28;20488;-60
2023/07/17 04:50:54;;;;;;;7.97;4.20;;;20.40;99.90;;;;;;5074940;28;20533;-61
2023/07/17 04:53:21;;;;;;;5.13;4.00;;;;;;;;;;5074429;28;20516;-60
2023/07/17 04:55:49;;;;;;;5.47;3.40;;;;;;;;;;5075350;28;20537;-61
2023/07/17 04:58:19;;;;;;;6.93;3.33;;;19.70;99.90;;;;;;5076214;28;20450;-60
2023/07/17 05:00:47;;;;;;;4.57;4.10;;;20.10;99.90;;;;;;5079547;28;20462;-62
2023/07/17 05:03:14;;;;;;;5.80;3.77;;;;;;;;;;5080218;28;20480;-61
2023/07/17 05:05:41;;;;;;;6.23;4.00;;;;;;;;;;5080712;28;20542;-59
2023/07/17 05:08:09;;;;;;;7.40;3.43;;;20.30;99.90;;;;;;5087255;28;20462;-60
2023/07/17 05:10:36;;;;;;;5.13;3.80;;;20.20;99.90;;;;;;5082054;28;20462;-61
2023/07/17 05:13:04;;;;;;;5.70;3.50;;;;;;;;;;5080536;28;20894;-61
2023/07/17 05:15:30;;;;;;;5.50;3.77;;;20.70;99.90;;;;;;5080226;28;20490;-62
2023/07/17 05:17:57;;;;;;;9.43;4.87;;;20.90;99.90;;;;;;5080030;28;20484;-59
2023/07/17 05:20:25;;;;;;;4.60;4.00;;;20.80;99.90;;;;;;5074222;28;20509;-60
2023/07/17 05:22:52;;;;;;;4.57;2.93;;;;;;;;;;5076390;28;20510;-60
2023/07/17 05:25:21;;;;;;;6.07;3.93;;;21.40;99.90;;;;;;5077304;28;20470;-60
2023/07/17 05:27:48;;;;;;;4.83;3.80;;;20.80;99.90;;;;;;5078066;28;20914;-62
2023/07/17 05:30:15;;;;;;;7.37;3.80;;;20.90;99.90;;;;;;5079963;28;20497;-61
2023/07/17 05:32:42;;;;;;;6.80;4.07;;;20.80;99.90;;;;;;5080233;28;20478;-61
2023/07/17 05:35:09;;;;;;;6.80;3.70;;;21.00;99.90;;;;;;5080071;28;20501;-60
2023/07/17 05:37:36;;;;;;;7.57;5.03;;;20.70;99.90;;;;;;5080158;28;20470;-60
2023/07/17 05:40:04;;;;;;;5.30;4.20;;;20.80;99.90;;;;;;5075146;28;20548;-62
2023/07/17 05:42:32;;;;;;;4.00;3.20;;;20.80;99.90;;;;;;5075159;28;20573;-61
2023/07/17 05:44:59;;;;;;;4.83;3.73;;;20.80;99.90;;;;;;5082873;28;20464;-61
2023/07/17 05:47:26;;;;;;;9.20;4.17;;;20.80;99.90;;;;;;5084197;28;20431;-60
2023/07/17 05:49:53;;;;;;;4.17;3.37;;;20.60;99.90;;;;;;5088878;28;20461;-59
2023/07/17 05:52:19;;;;;;;7.20;3.50;;;20.70;99.90;;;;;;5080421;28;20441;-60
2023/07/17 05:54:46;;;;;;;5.80;4.17;;;22.70;99.90;;;;;;5084192;28;20513;-60
2023/07/17 05:57:14;;;;;;;7.00;3.90;;;20.50;99.90;;;;;;5079779;28;20478;-59
2023/07/17 05:59:42;;;;;;;6.97;4.20;;;21.00;99.90;;;;;;5079885;28;20451;-61
2023/07/17 06:02:10;;;;;;;10.30;3.60;;;;;;;;;;5079641;28;20502;-61
2023/07/17 06:04:37;;;;;;;5.63;3.77;;;21.10;99.90;;;;;;5080141;28;20838;-60
2023/07/17 06:07:04;;;;;;;7.37;4.23;;;20.80;99.90;;;;;;5076191;28;20470;-59
2023/07/17 06:09:31;;;;;;;9.73;3.23;;;20.70;99.90;;;;;;5074405;28;20442;-59
2023/07/17 06:11:58;;;;;;;8.17;4.60;;;21.50;99.90;;;;;;5077206;28;20939;-61
2023/07/17 06:14:25;;;;;;;6.60;3.90;;;21.50;99.90;;;;;;5080397;28;20560;-60
2023/07/17 06:16:53;;;;;;;15.50;4.13;;;21.40;99.90;;;;;;5084175;28;20522;-61
2023/07/17 06:19:20;;;;;;;6.27;3.60;;;21.70;99.90;;;;;;5087648;28;20465;-60
2023/07/17 06:21:47;;;;;;;7.70;4.40;;;21.70;99.90;;;;;;5088338;28;20477;-60
2023/07/17 06:24:14;;;;;;;7.83;4.40;;;21.70;99.90;;;;;;5085335;28;20530;-61
2023/07/17 06:26:42;;;;;;;7.80;4.60;;;22.00;99.90;;;;;;5086066;28;20530;-62
2023/07/17 06:29:09;;;;;;;4.50;3.73;;;21.90;99.90;;;;;;5082283;28;20442;-62
2023/07/17 06:31:36;;;;;;;6.73;4.70;;;22.10;99.90;;;;;;5081544;28;20470;-61
2023/07/17 06:34:05;;;;;;;10.23;3.60;;;22.20;99.90;;;;;;5084508;28;20473;-61
2023/07/17 06:36:33;;;;;;;4.50;3.67;;;;;;;;;;5086281;28;20448;-61
2023/07/17 06:38:59;;;;;;;7.10;4.77;;;22.50;99.30;;;;;;5087536;28;20498;-61
2023/07/17 06:41:26;;;;;;;3.90;3.17;;;22.70;99.30;;;;;;5091577;28;20434;-61
2023/07/17 06:43:53;;;;;;;5.60;4.07;;;22.80;98.30;;;;;;5090829;28;20430;-57
2023/07/17 06:46:20;;;;;;;8.73;3.63;;;22.80;99.90;;;;;;5092063;28;20477;-60
2023/07/17 06:48:47;;;;;;;8.50;3.80;;;23.10;98.10;;;;;;5090942;28;20457;-59
2023/07/17 06:51:15;;;;;;;7.20;4.10;;;22.90;99.90;;;;;;5091375;28;20447;-61
2023/07/17 06:53:42;;;;;;;5.07;4.13;;;23.10;98.90;;;;;;5090452;28;20497;-59
2023/07/17 06:56:09;;;;;;;4.80;3.70;;;;;;;;;;5081947;28;20446;-60
2023/07/17 06:58:37;;;;;;;3.80;3.40;;;;;;;;;;5083589;28;20493;-61
2023/07/17 07:01:04;;;;;;;9.20;4.00;;;23.30;96.70;;;;;;5082540;28;20454;-60
2023/07/17 07:03:31;;;;;;;5.70;3.93;;;23.30;96.80;;;;;;5082422;28;20470;-62
2023/07/17 07:06:00;;;;;;;4.70;3.67;;;23.40;99.90;;;;;;5082510;28;20506;-61
2023/07/17 07:08:29;;;;;;;8.90;3.87;;;23.60;99.90;;;;;;5081377;28;20473;-61
2023/07/17 07:10:58;;;;;;;4.83;4.30;;;23.30;99.90;;;;;;5078808;28;20548;-62
2023/07/17 07:13:26;;;;;;;5.67;3.90;;;23.40;99.90;;;;;;5076885;28;20501;-59
2023/07/17 07:15:53;;;;;;;9.17;3.93;;;23.70;99.90;;;;;;5077225;28;20473;-60
2023/07/17 07:18:20;;;;;;;5.40;3.47;;;;;;;;;;5080880;28;20515;-60
2023/07/17 07:20:51;;;;;;;9.50;3.50;;;23.70;92.90;;;;;;5081592;28;20446;-60
2023/07/17 07:23:21;;;;;;;4.17;3.60;;;23.70;93.20;;;;;;5081757;28;20470;-60
2023/07/17 07:25:49;;;;;;;6.13;3.97;;;24.20;92.80;;;;;;5081277;28;20439;-59
2023/07/17 07:28:16;;;;;;;5.33;3.43;;;24.10;99.90;;;;;;5080341;28;20489;-57
2023/07/17 07:30:43;;;;;;;5.93;3.90;;;24.60;90.90;;;;;;5082038;28;20465;-60
2023/07/17 07:33:09;;;;;;;6.33;4.00;;;26.40;97.40;;;;;;5082432;28;20972;-59
2023/07/17 07:35:36;;;;;;;5.20;4.00;;;26.60;86.30;;;;;;5080655;28;20525;-60
2023/07/17 07:38:03;;;;;;;5.57;3.50;;;28.10;79.90;;;;;;5077776;28;20474;-59
2023/07/17 07:40:30;;;;;;;8.40;3.57;;;30.30;93.00;;;;;;5076108;28;20446;-60
2023/07/17 07:42:59;;;;;;;4.40;3.57;;;31.20;87.90;;;;;;5078386;28;20529;-59
2023/07/17 07:45:25;;;;;;;8.23;4.60;;;31.40;61.30;;;;;;5080819;28;20492;-60
2023/07/17 07:47:52;;;;;;;3.90;3.50;;;32.00;59.00;;;;;;5082894;28;20456;-60
2023/07/17 07:50:19;;;;;;;3.70;3.30;;;32.60;56.50;;;;;;5082446;28;20493;-58
2023/07/17 07:52:46;;;;;;;5.17;4.30;;;33.00;54.00;;;;;;5086289;28;20504;-60
2023/07/17 07:55:13;;;;;;;4.23;3.47;;;33.30;53.30;;;;;;5082061;28;21041;-61
2023/07/17 07:57:40;;;;;;;5.50;4.30;;;33.70;51.20;;;;;;5082769;28;20839;-58
2023/07/17 08:00:10;;;;;;;6.43;4.27;;;33.70;50.70;;;;;;5076087;28;20504;-62
2023/07/17 08:02:37;;;;;;;3.80;3.23;;;33.70;73.20;;;;;;5075734;28;20528;-60
2023/07/17 08:05:04;;;;;;;5.27;3.47;;;33.30;49.90;;;;;;5075399;28;20474;-61
2023/07/17 08:07:31;;;;;;;3.70;3.30;;;32.80;50.70;;;;;;5077385;28;20442;-59
2023/07/17 08:09:58;;;;;;;6.43;3.60;;;32.80;50.60;;;;;;5078416;28;20981;-60
2023/07/17 08:12:25;;;;;;;3.43;3.13;;;32.70;50.00;;;;;;5078388;28;20814;-60
2023/07/17 08:14:53;;;;;;;4.53;3.53;;;32.40;51.10;;;;;;5080539;28;20513;-59
2023/07/17 08:17:21;;;;;;;5.30;3.90;;;32.30;50.40;;;;;;5081648;28;20435;-60
2023/07/17 08:19:48;;;;;;;5.90;3.37;;;32.10;50.40;;;;;;5081196;28;20446;-60
2023/07/17 08:22:15;;;;;;;4.60;4.00;;;32.40;73.60;;;;;;5082393;28;20446;-61
2023/07/17 08:24:42;;;;;;;3.97;3.30;;;32.50;51.10;;;;;;5081839;28;20442;-61
2023/07/17 08:27:09;;;;;;;4.40;3.33;;;32.90;50.60;;;;;;5085148;28;20481;-60
2023/07/17 08:29:36;;;;;;;4.10;3.70;;;33.30;50.10;;;;;;5081638;28;20438;-61
2023/07/17 08:32:03;;;;;;;8.00;3.90;;;34.00;49.40;;;;;;5086530;28;20842;-60
2023/07/17 08:34:31;;;;;;;5.73;3.43;;;34.50;47.80;;;;;;5080897;28;20781;-58
2023/07/17 08:36:58;;;;;;;3.43;3.13;;;35.40;60.50;;;;;;5081345;28;20481;-58
2023/07/17 08:39:25;;;;;;;5.57;3.63;;;34.90;47.20;;;;;;5080000;28;20528;-61
2023/07/17 08:41:52;;;;;;;4.97;3.47;;;34.80;46.40;;;;;;5080211;28;20524;-59
2023/07/17 08:44:20;;;;;;;5.33;3.27;;;34.70;45.80;;;;;;5077413;28;20503;-60
2023/07/17 08:46:48;;;;;;;5.17;3.93;;;34.60;45.30;;;;;;5074834;28;20556;-60
2023/07/17 08:49:17;;;;;;;3.90;3.40;;;34.80;45.70;;;;;;5076488;28;20446;-59
2023/07/17 08:51:48;;;;;;;3.90;2.90;;;35.00;45.00;;;;;;5080388;28;20469;-60
2023/07/17 08:54:16;;;;;;;3.90;3.03;;;34.00;68.60;;;;;;5076002;28;20474;-60
2023/07/17 08:56:44;;;;;;;6.57;3.90;;;33.50;68.80;;;;;;5075389;28;20961;-59
2023/07/17 08:59:11;;;;;;;4.53;3.00;;;33.90;45.50;;;;;;5076941;28;20521;-59
2023/07/17 09:01:38;;;;;;;5.40;3.10;;;33.80;59.00;;;;;;5080176;28;20492;-58
2023/07/17 09:04:06;;;;;;;4.20;2.77;;;34.00;46.10;;;;;;5081329;28;20802;-59
2023/07/17 09:06:33;;;;;;;4.80;3.50;;;34.60;45.50;;;;;;5080985;28;20526;-61
2023/07/17 09:09:01;;;;;;;4.20;2.93;;;34.80;44.80;;;;;;5079858;28;20810;-62
2023/07/17 09:11:28;;;;;;;3.00;2.67;;;34.70;56.60;;;;;;5079387;28;20472;-59
2023/07/17 09:13:55;;;;;;;3.73;3.33;;;34.90;43.90;;;;;;5077482;28;20474;-60
2023/07/17 09:16:23;;;;;;;5.43;3.57;;;35.00;43.70;;;;;;5077658;28;20474;-60
2023/07/17 09:18:51;;;;;;;5.20;3.77;;;34.90;43.90;;;;;;5076078;28;20450;-59
2023/07/17 09:21:20;;;;;;;5.13;3.30;;;34.90;44.20;;;;;;5074598;28;20478;-60
2023/07/17 09:23:49;;;;;;;5.30;3.77;;;35.10;43.60;;;;;;5074721;28;20529;-60
2023/07/17 09:26:28;;;;;;;3.67;3.10;;;35.00;43.70;;;;;;5076665;28;20472;-58
2023/07/17 09:28:57;;;;;;;6.20;4.60;;;35.20;43.10;;;;;;5079663;28;20480;-60
2023/07/17 09:31:25;;;;;;;7.50;3.50;;;37.10;44.70;;;;;;5079636;28;20541;-59
2023/07/17 09:33:52;;;;;;;5.20;2.50;;;35.20;42.70;;;;;;5079612;28;20466;-59
2023/07/17 09:36:19;;;;;;;8.07;3.23;;;;;;;;;;5080527;28;20512;-59
2023/07/17 09:38:50;;;;;;;6.63;2.80;;;35.30;40.90;;;;;;5075328;28;20561;-61
2023/07/17 09:41:20;;;;;;;6.23;2.87;;;35.30;41.50;;;;;;5074429;28;20506;-56
2023/07/17 09:43:55;;;;;;;6.37;4.90;;;34.50;41.90;;;;;;5075527;28;20473;-59
2023/07/17 09:46:22;;;;;;;7.00;2.87;;;34.50;42.50;;;;;;5076789;28;20480;-59
2023/07/17 09:48:50;;;;;;;3.90;2.97;;;34.50;42.50;;;;;;5077068;28;20494;-61
2023/07/17 09:51:18;;;;;;;4.60;3.13;;;34.50;63.40;;;;;;5079153;28;20441;-59
2023/07/17 09:53:46;;;;;;;5.30;3.40;;;34.60;42.70;;;;;;5081224;28;20474;-59
2023/07/17 09:56:16;;;;;;;4.97;3.10;;;34.80;42.50;;;;;;5080693;28;20474;-60
2023/07/17 09:58:48;;;;;;;4.70;3.17;;;34.90;41.40;;;;;;5080380;28;20465;-60
2023/07/17 10:01:17;;;;;;;4.10;3.20;;;33.90;42.90;;;;;;5077729;28;20442;-61
2023/07/17 10:03:47;;;;;;;7.63;4.30;;;33.20;43.50;;;;;;5077781;28;20496;-59
2023/07/17 10:06:15;;;;;;;6.10;4.20;;;31.30;67.60;;;;;;5079250;28;20469;-60
2023/07/17 10:08:46;;;;;;;4.57;2.90;;;31.20;45.60;;;;;;5080355;28;20446;-60
2023/07/17 10:11:16;;;;;;;5.57;4.40;;;30.70;71.30;;;;;;5079944;28;20516;-60
2023/07/17 10:13:44;;;;;;;5.47;3.80;;;30.70;45.70;;;;;;5077335;28;20446;-60
2023/07/17 10:16:15;;;;;;;5.50;3.37;;;30.70;46.50;;;;;;5078193;28;20462;-60
2023/07/17 10:18:49;;;;;;;5.43;3.20;;;29.80;73.50;;;;;;5078963;28;20982;-59
2023/07/17 10:21:18;;;;;;;4.43;4.00;;;30.00;48.60;;;;;;5080415;28;20434;-59
2023/07/17 10:23:47;;;;;;;3.33;2.60;;;30.30;50.90;;;;;;5079723;28;20453;-60
2023/07/17 10:26:21;;;;;;;3.00;2.37;;;30.40;48.10;;;;;;5083548;28;20513;-59
2023/07/17 10:28:50;;;;;;;4.73;2.90;;;30.90;47.80;;;;;;5080227;28;20461;-60
2023/07/17 10:31:31;;;;;;;7.07;3.53;;;31.40;47.10;;;;;;5077514;28;20522;-58
2023/07/17 10:34:01;;;;;;;12.23;3.10;;;32.20;46.80;;;;;;5078460;28;20847;-61
2023/07/17 10:36:39;;;;;;;5.90;3.03;;;32.30;45.80;;;;;;5078537;28;20554;-59
2023/07/17 10:39:15;;;;;;;5.37;3.33;;;30.40;43.90;;;;;;5080439;28;20518;-62
2023/07/17 10:41:43;;;;;;;7.20;3.30;;;32.00;45.70;;;;;;5079483;28;20437;-57
2023/07/17 10:44:10;;;;;;;6.83;3.37;;;;;;;;;;5079671;28;20850;-58
2023/07/17 10:46:39;;;;;;;6.50;3.33;;;30.30;72.10;;;;;;5077562;28;20462;-59
2023/07/17 10:49:07;;;;;;;3.53;3.20;;;30.30;47.20;;;;;;5076872;28;20450;-61
2023/07/17 10:51:34;;;;;;;4.20;3.30;;;29.60;48.00;;;;;;5077569;28;20466;-60
2023/07/17 10:54:01;;;;;;;5.53;3.03;;;28.50;48.60;;;;;;5077166;28;20456;-60
2023/07/17 10:56:30;;;;;;;11.13;2.60;;;28.50;75.60;;;;;;5076836;28;20836;-60
2023/07/17 10:58:57;;;;;;;5.17;2.40;;;28.50;49.40;;;;;;5079045;28;20525;-61
2023/07/17 11:01:24;;;;;;;7.40;3.97;;;28.60;49.30;;;;;;5079110;28;20504;-61
2023/07/17 11:03:53;;;;;;;2.77;2.23;;;29.00;49.20;;;;;;5080192;28;20998;-61
2023/07/17 11:06:24;;;;;;;3.90;2.63;;;29.00;49.70;;;;;;5076875;28;20792;-60
2023/07/17 11:08:52;;;;;;;4.23;3.10;;;;;;;;;;5076775;28;20929;-60
2023/07/17 11:11:19;;;;;;;4.83;2.80;;;;;;;;;;5077862;28;20481;-59
2023/07/17 11:13:47;;;;;;;4.53;3.20;;;28.00;77.30;;;;;;5079261;28;20493;-59
2023/07/17 11:16:14;;;;;;;5.03;2.90;;;;;;;;;;5079654;28;20569;-60
2023/07/17 11:18:45;;;;;;;5.87;2.60;;;27.80;49.10;;;;;;5080684;28;20542;-58
2023/07/17 11:21:14;;;;;;;7.80;2.67;;;27.90;77.10;;;;;;5082872;28;20510;-56
2023/07/17 11:23:48;;;;;;;2.43;2.23;;;28.00;50.70;;;;;;5082373;28;20462;-61
2023/07/17 11:26:17;;;;;;;4.90;2.90;;;28.50;49.90;;;;;;5082816;28;20430;-63
2023/07/17 11:28:45;;;;;;;5.30;3.67;;;;;;;;;;5082824;28;20438;-58
2023/07/17 11:31:19;;;;;;;3.73;2.73;;;29.20;48.60;;;;;;5082193;28;20481;-61
2023/07/17 11:33:58;;;;;;;5.77;2.77;;;29.60;49.30;;;;;;5082639;28;20426;-60
2023/07/17 11:36:27;;;;;;;3.83;2.60;;;29.80;47.90;;;;;;5082192;28;20462;-59
2023/07/17 11:38:57;;;;;;;4.37;2.47;;;29.20;48.30;;;;;;5081885;28;20458;-61
2023/07/17 11:41:25;;;;;;;4.90;2.90;;;29.20;48.80;;;;;;5081692;28;20914;-58
2023/07/17 11:43:58;;;;;;;5.13;2.60;;;29.40;49.50;;;;;;5082073;28;20550;-59
2023/07/17 11:46:25;;;;;;;3.87;2.97;;;29.60;49.10;;;;;;5082379;28;20442;-59
2023/07/17 11:48:54;;;;;;;3.30;2.73;;;28.90;72.00;;;;;;5081956;28;20834;-60
2023/07/17 11:51:26;;;;;;;10.70;2.90;;;28.70;72.30;;;;;;5089496;28;20442;-60
2023/07/17 11:53:54;;;;;;;3.77;2.73;;;28.60;48.50;;;;;;5085972;28;20502;-62
2023/07/17 11:56:22;;;;;;;3.40;2.87;;;28.70;48.10;;;;;;5089092;28;20462;-59
2023/07/17 11:58:52;;;;;;;4.20;2.47;;;29.00;48.50;;;;;;5082181;28;20470;-61
2023/07/17 12:01:19;;;;;;;3.97;2.60;;;29.00;48.90;;;;;;5077405;28;20840;-60
2023/07/17 12:03:46;;;;;;;2.97;2.20;;;29.40;72.60;;;;;;5078186;28;20529;-62
2023/07/17 12:06:13;;;;;;;2.70;2.30;;;29.40;47.60;;;;;;5078829;28;20905;-60
2023/07/17 12:08:42;;;;;;;5.10;2.70;;;29.40;47.00;;;;;;5078229;28;20470;-61
2023/07/17 12:11:09;;;;;;;7.23;2.47;;;29.30;45.60;;;;;;5078545;28;20953;-61
2023/07/17 12:13:36;;;;;;;5.23;2.67;;;;;;;;;;5078068;28;20850;-60
2023/07/17 12:16:03;;;;;;;5.10;2.03;;;29.10;44.80;;;;;;5075673;28;20573;-62
2023/07/17 12:18:30;;;;;;;5.83;2.53;;;29.10;45.80;;;;;;5076605;28;20942;-61
2023/07/17 12:20:57;;;;;;;4.63;2.70;;;29.10;46.20;;;;;;5078535;28;20441;-59
2023/07/17 12:23:24;;;;;;;2.60;2.40;;;;;;;;;;5075554;28;20545;-59
2023/07/17 12:25:52;;;;;;;6.50;2.53;;;29.10;64.90;;;;;;5076137;28;20445;-62
2023/07/17 12:28:19;;;;;;;4.37;2.63;;;29.00;46.80;;;;;;5077006;28;20851;-60
2023/07/17 12:30:46;;;;;;;2.63;2.17;;;29.00;47.50;;;;;;5077945;28;20488;-61
2023/07/17 12:33:14;;;;;;;4.47;2.20;;;29.00;47.30;;;;;;5080295;28;20829;-61
2023/07/17 12:35:41;;;;;;;5.63;2.73;;;;;;;;;;5081404;28;20458;-61
2023/07/17 12:38:08;;;;;;;3.07;2.30;;;28.70;71.60;;;;;;5080577;28;20750;-60
2023/07/17 12:40:35;;;;;;;2.60;2.07;;;28.80;47.50;;;;;;5081520;28;20449;-61
2023/07/17 12:43:04;;;;;;;9.07;2.80;;;28.70;46.50;;;;;;5081066;28;20526;-62
2023/07/17 12:45:31;;;;;;;2.83;2.20;;;;;;;;;;5082068;28;20443;-60
2023/07/17 12:47:58;;;;;;;3.67;2.63;;;28.70;47.30;;;;;;5075490;28;20507;-62
2023/07/17 12:50:25;;;;;;;3.30;1.97;;;28.80;48.00;;;;;;5074619;28;20474;-62
2023/07/17 12:52:52;;;;;;;5.57;2.80;;;28.30;61.80;;;;;;5074699;28;20489;-59
2023/07/17 12:55:19;;;;;;;3.50;2.53;;;28.60;46.00;;;;;;5075206;28;20562;-56
2023/07/17 12:57:46;;;;;;;3.33;2.00;;;28.40;46.60;;;;;;5078087;28;20486;-61
2023/07/17 13:00:15;;;;;;;3.20;2.13;;;28.50;46.90;;;;;;5079522;28;20494;-61
2023/07/17 13:02:42;;;;;;;7.17;2.80;;;;;;;;;;5074818;28;20474;-60